createdAt,value
2023-02-27T00:00:41.618Z,1.00
2023-02-27T00:03:09.172Z,1.00
2023-02-27T00:05:36.512Z,1.00
2023-02-27T00:08:03.931Z,1.00
2023-02-27T00:10:31.148Z,1.00
2023-02-27T00:12:58.533Z,1.00
2023-02-27T00:15:25.913Z,1.00
2023-02-27T00:17:53.527Z,1.00
2023-02-27T00:20:20.788Z,1.00
2023-02-27T00:22:48.115Z,0.90
2023-02-27T00:25:15.801Z,0.80
2023-02-27T00:27:43.728Z,0.90
2023-02-27T00:30:15.596Z,0.80
2023-02-27T00:32:43.389Z,0.80
2023-02-27T00:35:12.180Z,0.80
2023-02-27T00:37:40.282Z,0.80
2023-02-27T00:40:08.358Z,0.70
2023-02-27T00:42:36.207Z,0.80
2023-02-27T00:45:06.344Z,0.80
2023-02-27T00:47:34.845Z,0.80
2023-02-27T00:50:02.332Z,0.80
2023-02-27T00:52:29.748Z,0.70
2023-02-27T00:54:57.146Z,0.70
2023-02-27T00:57:24.407Z,0.70
2023-02-27T00:59:51.870Z,0.70
2023-02-27T01:02:19.362Z,0.60
2023-02-27T01:04:46.599Z,0.60
2023-02-27T01:07:14.268Z,0.60
2023-02-27T01:09:41.660Z,0.70
2023-02-27T01:12:09.299Z,0.60
2023-02-27T01:14:36.904Z,0.60
2023-02-27T01:17:04.480Z,0.60
2023-02-27T01:19:32.322Z,0.60
2023-02-27T01:21:59.541Z,0.60
2023-02-27T01:24:26.967Z,0.60
2023-02-27T01:26:54.472Z,0.60
2023-02-27T01:29:21.787Z,0.70
2023-02-27T01:31:49.309Z,0.70
2023-02-27T01:34:17.590Z,0.70
2023-02-27T01:36:44.831Z,0.70
2023-02-27T01:39:12.329Z,0.70
2023-02-27T01:41:41.110Z,0.70
2023-02-27T01:44:11.573Z,0.60
2023-02-27T01:46:39.254Z,0.60
2023-02-27T01:49:07.555Z,0.60
2023-02-27T01:51:42.007Z,0.60
2023-02-27T01:54:17.797Z,0.60
2023-02-27T01:56:45.799Z,0.60
2023-02-27T01:59:14.066Z,0.50
2023-02-27T02:01:41.584Z,0.50
2023-02-27T02:04:35.204Z,0.50
2023-02-27T02:07:07.417Z,0.40
2023-02-27T02:09:44.337Z,0.40
2023-02-27T02:12:16.301Z,0.40
2023-02-27T02:14:43.998Z,0.30
2023-02-27T02:17:40.396Z,0.30
2023-02-27T02:20:26.188Z,0.30
2023-02-27T02:23:07.051Z,0.20
2023-02-27T02:25:57.206Z,0.10
2023-02-27T02:28:58.210Z,0.10
2023-02-27T02:31:28.784Z,0.10
2023-02-27T02:34:16.476Z,0.10
2023-02-27T02:36:59.222Z,0.10
2023-02-27T02:39:45.210Z,0.00
2023-02-27T02:42:23.111Z,0.00
2023-02-27T02:44:56.616Z,0.00
2023-02-27T02:47:45.435Z,0.00
2023-02-27T02:50:26.357Z,-0.10
2023-02-27T02:53:37.344Z,-0.20
2023-02-27T02:56:30.082Z,-0.20
2023-02-27T02:59:00.890Z,-0.20
2023-02-27T03:01:58.254Z,-0.10
2023-02-27T03:04:37.688Z,-0.10
2023-02-27T03:07:30.040Z,-0.20
2023-02-27T03:10:28.685Z,-0.30
2023-02-27T03:13:25.033Z,-0.30
2023-02-27T03:16:01.518Z,-0.40
2023-02-27T03:18:37.808Z,-0.40
2023-02-27T03:21:13.778Z,-0.40
2023-02-27T03:23:47.926Z,-0.30
2023-02-27T03:26:20.299Z,-0.50
2023-02-27T03:29:01.055Z,-0.60
2023-02-27T03:31:41.555Z,-0.50
2023-02-27T03:34:34.122Z,-0.50
2023-02-27T03:37:13.006Z,-0.60
2023-02-27T03:39:52.318Z,-0.60
2023-02-27T03:42:37.616Z,-0.60
2023-02-27T03:46:04.720Z,-0.60
2023-02-27T03:48:33.965Z,-0.60
2023-02-27T03:51:02.505Z,-0.60
2023-02-27T03:53:42.080Z,-0.60
2023-02-27T03:56:12.398Z,-0.60
2023-02-27T03:58:40.424Z,-0.60
2023-02-27T04:01:08.151Z,-0.50
2023-02-27T04:03:41.647Z,-0.50
2023-02-27T04:06:28.435Z,-0.50
2023-02-27T04:09:10.218Z,-0.50
2023-02-27T04:11:59.537Z,-0.50
2023-02-27T04:15:04.088Z,-0.50
2023-02-27T04:17:33.528Z,-0.50
2023-02-27T04:20:39.840Z,-0.60
2023-02-27T04:23:23.927Z,-0.70
2023-02-27T04:26:00.183Z,-0.70
2023-02-27T04:28:41.586Z,-0.80
2023-02-27T04:31:11.869Z,-0.80
2023-02-27T04:33:39.189Z,-0.80
2023-02-27T04:36:11.985Z,-0.80
2023-02-27T04:38:51.562Z,-0.70
2023-02-27T04:41:27.445Z,-0.70
2023-02-27T04:43:56.909Z,-0.70
2023-02-27T04:46:28.773Z,-0.70
2023-02-27T04:49:04.162Z,-0.70
2023-02-27T04:51:44.611Z,-0.80
2023-02-27T04:54:16.351Z,-0.80
2023-02-27T04:56:52.828Z,-0.80
2023-02-27T04:59:30.967Z,-0.70
2023-02-27T05:02:16.533Z,-0.70
2023-02-27T05:04:46.389Z,-0.70
2023-02-27T05:07:20.504Z,-0.80
2023-02-27T05:09:55.426Z,-0.70
2023-02-27T05:12:34.331Z,-0.70
2023-02-27T05:15:17.361Z,-0.70
2023-02-27T05:18:04.661Z,-0.70
2023-02-27T05:20:42.687Z,-0.70
2023-02-27T05:23:44.331Z,-0.70
2023-02-27T05:26:11.355Z,-0.70
2023-02-27T05:28:46.683Z,-0.70
2023-02-27T05:31:30.374Z,-0.70
2023-02-27T05:34:03.064Z,-0.70
2023-02-27T05:36:57.879Z,-0.70
2023-02-27T05:39:28.135Z,-0.70
2023-02-27T05:42:01.784Z,-0.70
2023-02-27T05:44:37.701Z,-0.70
2023-02-27T05:47:17.458Z,-0.70
2023-02-27T05:50:08.244Z,-0.70
2023-02-27T05:52:36.642Z,-0.70
2023-02-27T05:55:22.553Z,-0.70
2023-02-27T05:57:59.470Z,-0.70
2023-02-27T06:00:41.584Z,-0.60
2023-02-27T06:03:09.520Z,-0.60
2023-02-27T06:05:38.625Z,-0.60
2023-02-27T06:08:05.842Z,-0.60
2023-02-27T06:10:33.358Z,-0.60
2023-02-27T06:13:00.899Z,-0.60
2023-02-27T06:15:28.618Z,-0.60
2023-02-27T06:17:56.965Z,-0.60
2023-02-27T06:20:24.204Z,-0.60
2023-02-27T06:22:51.413Z,-0.60
2023-02-27T06:25:18.811Z,-0.50
2023-02-27T06:27:46.413Z,-0.50
2023-02-27T06:30:14.187Z,-0.50
2023-02-27T06:32:41.460Z,-0.50
2023-02-27T06:35:09.182Z,-0.40
2023-02-27T06:37:36.573Z,-0.40
2023-02-27T06:40:06.007Z,-0.40
2023-02-27T06:42:33.361Z,-0.40
2023-02-27T06:45:00.607Z,-0.40
2023-02-27T06:47:27.812Z,-0.30
2023-02-27T06:49:55.006Z,-0.30
2023-02-27T06:52:22.227Z,-0.30
2023-02-27T06:54:49.578Z,-0.30
2023-02-27T06:57:17.327Z,-0.30
2023-02-27T06:59:45.527Z,-0.30
2023-02-27T07:02:14.208Z,-0.20
2023-02-27T07:04:42.322Z,-0.20
2023-02-27T07:07:34.898Z,-0.20
2023-02-27T07:09:57.512Z,-0.20
2023-02-27T07:12:25.073Z,-0.10
2023-02-27T07:14:52.271Z,-0.10
2023-02-27T07:17:19.519Z,-0.10
2023-02-27T07:19:48.984Z,-0.10
2023-02-27T07:22:16.176Z,0.00
2023-02-27T07:24:43.600Z,0.00
2023-02-27T07:27:10.803Z,0.00
2023-02-27T07:29:38.159Z,0.10
2023-02-27T07:32:05.556Z,0.20
2023-02-27T07:34:33.192Z,0.20
2023-02-27T07:37:00.405Z,0.30
2023-02-27T07:39:27.861Z,0.40
2023-02-27T07:41:55.170Z,0.50
2023-02-27T07:44:23.177Z,0.70
2023-02-27T07:46:50.435Z,0.80
2023-02-27T07:49:17.794Z,1.00
2023-02-27T07:51:45.284Z,1.20
2023-02-27T07:54:12.521Z,1.40
2023-02-27T07:56:40.894Z,1.40
2023-02-27T07:59:08.144Z,1.60
2023-02-27T08:01:35.630Z,1.70
2023-02-27T08:04:03.112Z,1.80
2023-02-27T08:06:30.624Z,1.80
2023-02-27T08:08:57.988Z,1.80
2023-02-27T08:11:25.560Z,1.90
2023-02-27T08:14:00.616Z,1.80
2023-02-27T08:16:29.390Z,1.90
2023-02-27T08:18:57.992Z,1.90
2023-02-27T08:21:25.626Z,1.90
2023-02-27T08:23:53.263Z,2.00
2023-02-27T08:26:21.480Z,2.00
2023-02-27T08:28:49.212Z,2.10
2023-02-27T08:31:16.678Z,2.00
2023-02-27T08:33:45.303Z,2.10
2023-02-27T08:36:12.550Z,2.20
2023-02-27T08:38:40.104Z,2.30
2023-02-27T08:41:07.541Z,2.40
2023-02-27T08:43:34.829Z,2.50
2023-02-27T08:46:02.609Z,2.60
2023-02-27T08:48:29.945Z,2.80
2023-02-27T08:50:57.996Z,2.90
2023-02-27T08:53:25.601Z,3.10
2023-02-27T08:55:53.561Z,3.20
2023-02-27T08:58:20.883Z,3.20
2023-02-27T09:00:48.337Z,3.20
2023-02-27T09:03:16.000Z,3.30
2023-02-27T09:05:43.692Z,3.40
2023-02-27T09:08:11.867Z,3.40
2023-02-27T09:10:39.154Z,3.40
2023-02-27T09:13:06.774Z,3.50
2023-02-27T09:15:38.136Z,3.40
2023-02-27T09:18:07.109Z,3.40
2023-02-27T09:20:36.122Z,3.60
2023-02-27T09:23:04.333Z,3.70
2023-02-27T09:25:31.679Z,3.60
2023-02-27T09:27:59.353Z,3.70
2023-02-27T09:30:27.114Z,3.90
2023-02-27T09:32:54.724Z,3.90
2023-02-27T09:35:22.415Z,3.90
2023-02-27T09:37:49.850Z,3.90
2023-02-27T09:40:22.787Z,3.90
2023-02-27T09:42:52.196Z,3.90
2023-02-27T09:45:25.837Z,4.00
2023-02-27T09:48:21.929Z,4.10
2023-02-27T09:50:52.699Z,4.60
2023-02-27T09:53:32.271Z,5.10
2023-02-27T09:56:05.557Z,5.30
2023-02-27T09:58:35.965Z,6.10
2023-02-27T10:01:22.139Z,6.90
2023-02-27T10:04:18.745Z,8.80
2023-02-27T10:07:26.338Z,9.40
2023-02-27T10:10:22.635Z,7.50
2023-02-27T10:12:52.703Z,7.40
2023-02-27T10:15:27.451Z,7.00
2023-02-27T10:18:29.007Z,6.60
2023-02-27T10:21:01.719Z,6.40
2023-02-27T10:23:35.376Z,6.10
2023-02-27T10:26:04.327Z,6.00
2023-02-27T10:28:36.237Z,5.80
2023-02-27T10:31:20.135Z,5.80
2023-02-27T10:33:48.957Z,5.70
2023-02-27T10:36:32.511Z,5.50
2023-02-27T10:39:11.330Z,5.40
2023-02-27T10:41:40.088Z,5.40
2023-02-27T10:44:07.500Z,5.50
2023-02-27T10:46:38.732Z,5.60
2023-02-27T10:49:19.150Z,5.70
2023-02-27T10:52:03.771Z,5.70
2023-02-27T10:54:31.567Z,5.60
2023-02-27T10:57:01.853Z,5.30
2023-02-27T10:59:33.039Z,5.10
2023-02-27T11:02:03.227Z,4.90
2023-02-27T11:04:46.706Z,4.70
2023-02-27T11:07:16.977Z,4.50
2023-02-27T11:09:58.477Z,4.60
2023-02-27T11:12:32.344Z,4.70
2023-02-27T11:15:03.199Z,4.70
2023-02-27T11:17:35.475Z,4.60
2023-02-27T11:20:06.586Z,4.70
2023-02-27T11:22:34.036Z,4.80
2023-02-27T11:25:30.807Z,4.90
2023-02-27T11:28:24.468Z,5.00
2023-02-27T11:31:02.356Z,5.00
2023-02-27T11:33:35.456Z,4.90
2023-02-27T11:36:03.601Z,4.80
2023-02-27T11:38:32.512Z,4.80
2023-02-27T11:41:05.764Z,4.90
2023-02-27T11:43:52.526Z,4.80
2023-02-27T11:46:42.278Z,4.80
2023-02-27T11:49:26.992Z,4.90
2023-02-27T11:52:06.426Z,4.80
2023-02-27T11:54:39.121Z,4.80
2023-02-27T11:57:24.932Z,4.90
2023-02-27T11:59:58.471Z,4.90
2023-02-27T12:02:46.141Z,5.20
2023-02-27T12:05:24.369Z,5.30
2023-02-27T12:08:24.458Z,5.10
2023-02-27T12:11:16.184Z,5.30
2023-02-27T12:13:47.604Z,5.50
2023-02-27T12:16:32.675Z,5.70
2023-02-27T12:19:24.690Z,5.80
2023-02-27T12:22:06.785Z,5.90
2023-02-27T12:24:53.115Z,5.90
2023-02-27T12:27:29.578Z,5.70
2023-02-27T12:30:05.762Z,5.70
2023-02-27T12:32:38.886Z,5.70
2023-02-27T12:35:34.102Z,5.70
2023-02-27T12:38:02.713Z,5.70
2023-02-27T12:40:55.256Z,5.70
2023-02-27T12:43:22.408Z,5.70
2023-02-27T12:46:24.928Z,5.50
2023-02-27T12:49:11.347Z,5.20
2023-02-27T12:52:01.626Z,5.20
2023-02-27T12:54:32.020Z,5.20
2023-02-27T12:57:38.419Z,5.00
2023-02-27T13:00:21.101Z,5.00
2023-02-27T13:03:10.237Z,4.90
2023-02-27T13:06:20.144Z,4.80
2023-02-27T13:09:02.601Z,4.70
2023-02-27T13:11:45.321Z,4.80
2023-02-27T13:14:49.144Z,4.70
2023-02-27T13:17:30.235Z,4.50
2023-02-27T13:20:20.673Z,4.60
2023-02-27T13:23:14.748Z,4.40
2023-02-27T13:25:48.331Z,4.30
2023-02-27T13:28:23.877Z,4.40
2023-02-27T13:31:27.129Z,4.40
2023-02-27T13:34:04.914Z,4.50
2023-02-27T13:36:44.123Z,4.60
2023-02-27T13:39:51.960Z,4.70
2023-02-27T13:42:29.075Z,4.50
2023-02-27T13:45:01.918Z,4.50
2023-02-27T13:47:38.110Z,4.40
2023-02-27T13:50:25.569Z,4.50
2023-02-27T13:52:53.294Z,4.40
2023-02-27T13:55:37.033Z,4.50
2023-02-27T13:58:05.887Z,4.40
2023-02-27T14:00:38.226Z,4.40
2023-02-27T14:03:25.964Z,4.50
2023-02-27T14:05:56.238Z,4.40
2023-02-27T14:08:37.491Z,4.50
2023-02-27T14:11:15.609Z,4.60
2023-02-27T14:13:45.913Z,4.50
2023-02-27T14:16:33.993Z,4.50
2023-02-27T14:19:02.158Z,4.60
2023-02-27T14:21:51.486Z,4.60
2023-02-27T14:25:02.420Z,4.70
2023-02-27T14:27:48.696Z,4.60
2023-02-27T14:30:43.132Z,4.50
2023-02-27T14:33:39.013Z,4.50
2023-02-27T14:36:16.049Z,4.40
2023-02-27T14:38:43.486Z,4.30
2023-02-27T14:41:27.524Z,4.20
2023-02-27T14:43:57.751Z,4.10
2023-02-27T14:46:41.361Z,4.10
2023-02-27T14:49:20.407Z,4.00
2023-02-27T14:51:47.729Z,4.10
2023-02-27T14:54:27.217Z,4.00
2023-02-27T14:56:58.492Z,4.00
2023-02-27T14:59:41.900Z,4.00
2023-02-27T15:02:28.170Z,4.10
2023-02-27T15:05:13.822Z,4.00
2023-02-27T15:07:41.922Z,4.00
2023-02-27T15:10:17.262Z,4.10
2023-02-27T15:12:44.515Z,4.00
2023-02-27T15:15:18.526Z,3.90
2023-02-27T15:17:46.620Z,4.00
2023-02-27T15:20:34.071Z,4.10
2023-02-27T15:23:20.965Z,4.10
2023-02-27T15:25:48.259Z,4.10
2023-02-27T15:28:24.018Z,4.00
2023-02-27T15:30:53.373Z,4.00
2023-02-27T15:33:27.630Z,4.00
2023-02-27T15:35:55.326Z,4.00
2023-02-27T15:38:32.789Z,4.00
2023-02-27T15:41:02.107Z,3.90
2023-02-27T15:43:30.251Z,3.90
2023-02-27T15:45:58.493Z,3.70
2023-02-27T15:48:26.844Z,3.60
2023-02-27T15:51:03.891Z,3.60
2023-02-27T15:53:34.308Z,3.60
2023-02-27T15:56:06.371Z,3.50
2023-02-27T15:58:41.685Z,3.50
2023-02-27T16:01:21.728Z,3.40
2023-02-27T16:03:52.724Z,3.30
2023-02-27T16:06:25.487Z,3.30
2023-02-27T16:09:02.951Z,3.20
2023-02-27T16:11:35.898Z,3.20
2023-02-27T16:14:04.405Z,3.20
2023-02-27T16:16:37.560Z,3.20
2023-02-27T16:19:15.932Z,3.20
2023-02-27T16:22:12.039Z,3.00
2023-02-27T16:24:39.499Z,3.00
2023-02-27T16:27:14.617Z,3.10
2023-02-27T16:29:45.433Z,3.10
2023-02-27T16:32:24.154Z,3.00
2023-02-27T16:34:59.294Z,3.00
2023-02-27T16:37:41.131Z,3.00
2023-02-27T16:40:14.778Z,3.00
2023-02-27T16:42:43.077Z,2.90
2023-02-27T16:45:21.733Z,2.80
2023-02-27T16:47:51.924Z,2.80
2023-02-27T16:50:23.512Z,2.80
2023-02-27T16:52:50.985Z,2.80
2023-02-27T16:55:18.980Z,2.70
2023-02-27T16:57:46.688Z,2.70
2023-02-27T17:00:15.651Z,2.70
2023-02-27T17:02:43.335Z,2.70
2023-02-27T17:05:12.271Z,2.60
2023-02-27T17:07:40.136Z,2.50
2023-02-27T17:10:08.994Z,2.50
2023-02-27T17:12:36.992Z,2.50
2023-02-27T17:15:06.703Z,2.50
2023-02-27T17:17:34.502Z,2.50
2023-02-27T17:20:05.718Z,2.40
2023-02-27T17:22:36.622Z,2.40
2023-02-27T17:25:04.546Z,2.30
2023-02-27T17:27:32.339Z,2.20
2023-02-27T17:30:00.275Z,2.30
2023-02-27T17:32:28.971Z,2.30
2023-02-27T17:34:59.529Z,2.40
2023-02-27T17:37:27.608Z,2.30
2023-02-27T17:39:56.068Z,2.30
2023-02-27T17:42:26.067Z,2.30
2023-02-27T17:44:54.551Z,2.30
2023-02-27T17:47:22.763Z,2.10
2023-02-27T17:49:51.134Z,2.10
2023-02-27T17:52:19.148Z,2.10
2023-02-27T17:54:47.583Z,2.00
2023-02-27T17:57:18.087Z,2.10
2023-02-27T17:59:45.952Z,2.10
2023-02-27T18:02:14.931Z,2.00
2023-02-27T18:04:43.190Z,2.00
2023-02-27T18:07:11.125Z,1.90
2023-02-27T18:09:39.171Z,2.00
2023-02-27T18:12:07.580Z,2.00
2023-02-27T18:14:36.845Z,2.00
2023-02-27T18:17:07.446Z,2.00
2023-02-27T18:19:38.592Z,1.90
2023-02-27T18:22:09.495Z,1.90
2023-02-27T18:24:38.843Z,1.90
2023-02-27T18:27:07.458Z,1.80
2023-02-27T18:29:37.239Z,1.70
2023-02-27T18:32:08.730Z,1.60
2023-02-27T18:34:36.844Z,1.60
2023-02-27T18:37:05.263Z,1.70
2023-02-27T18:39:33.526Z,1.70
2023-02-27T18:42:01.721Z,1.60
2023-02-27T18:44:30.045Z,1.60
2023-02-27T18:46:58.749Z,1.60
2023-02-27T18:49:27.092Z,1.70
2023-02-27T18:51:54.925Z,1.70
2023-02-27T18:54:28.639Z,1.80
2023-02-27T18:56:57.595Z,1.80
2023-02-27T18:59:26.922Z,1.70
2023-02-27T19:01:55.700Z,1.70
2023-02-27T19:04:26.029Z,1.80
2023-02-27T19:06:54.390Z,1.80
2023-02-27T19:09:24.274Z,1.80
2023-02-27T19:11:52.155Z,1.80
2023-02-27T19:14:21.449Z,1.80
2023-02-27T19:16:53.209Z,1.80
2023-02-27T19:19:21.426Z,1.80
2023-02-27T19:21:49.823Z,1.70
2023-02-27T19:24:18.359Z,1.80
2023-02-27T19:26:48.000Z,1.80
2023-02-27T19:29:21.468Z,1.80
2023-02-27T19:31:51.582Z,1.90
2023-02-27T19:34:20.837Z,1.90
2023-02-27T19:36:48.938Z,1.90
2023-02-27T19:39:17.337Z,1.90
2023-02-27T19:41:46.765Z,1.90
2023-02-27T19:44:16.068Z,1.90
2023-02-27T19:46:47.051Z,2.00
2023-02-27T19:49:15.385Z,2.00
2023-02-27T19:51:43.900Z,2.00
2023-02-27T19:54:16.742Z,2.00
2023-02-27T19:56:45.233Z,2.00
2023-02-27T19:59:14.203Z,2.00
2023-02-27T20:01:42.183Z,2.00
2023-02-27T20:04:11.764Z,1.90
2023-02-27T20:06:43.059Z,2.00
2023-02-27T20:09:13.945Z,1.90
2023-02-27T20:11:47.739Z,2.00
2023-02-27T20:14:18.972Z,2.00
2023-02-27T20:16:47.913Z,2.00
2023-02-27T20:19:18.400Z,2.00
2023-02-27T20:21:50.061Z,2.00
2023-02-27T20:24:19.490Z,2.00
2023-02-27T20:26:50.197Z,2.10
2023-02-27T20:29:25.182Z,2.10
2023-02-27T20:31:54.641Z,2.10
2023-02-27T20:34:26.931Z,2.10
2023-02-27T20:36:57.929Z,2.10
2023-02-27T20:39:28.573Z,2.20
2023-02-27T20:41:57.054Z,2.20
2023-02-27T20:44:25.543Z,2.20
2023-02-27T20:46:54.780Z,2.20
2023-02-27T20:49:23.881Z,2.10
2023-02-27T20:51:52.220Z,2.10
2023-02-27T20:54:23.360Z,2.10
2023-02-27T20:56:52.890Z,2.10
2023-02-27T20:59:22.901Z,2.20
2023-02-27T21:01:53.746Z,2.10
2023-02-27T21:04:42.770Z,2.10
2023-02-27T21:07:16.066Z,2.20
2023-02-27T21:09:44.144Z,2.10
2023-02-27T21:12:13.701Z,2.10
2023-02-27T21:14:44.461Z,2.10
2023-02-27T21:17:13.020Z,2.00
2023-02-27T21:19:40.834Z,2.00
2023-02-27T21:22:11.873Z,2.00
2023-02-27T21:24:39.749Z,2.00
2023-02-27T21:27:07.358Z,2.00
2023-02-27T21:29:35.485Z,2.00
2023-02-27T21:32:03.447Z,1.90
2023-02-27T21:34:32.263Z,1.90
2023-02-27T21:37:03.210Z,2.00
2023-02-27T21:39:30.551Z,2.00
2023-02-27T21:41:59.750Z,2.00
2023-02-27T21:44:27.230Z,2.10
2023-02-27T21:46:55.412Z,2.10
2023-02-27T21:49:27.779Z,2.10
2023-02-27T21:51:55.500Z,2.10
2023-02-27T21:54:23.574Z,2.10
2023-02-27T21:56:51.110Z,2.10
2023-02-27T21:59:20.202Z,2.10
2023-02-27T22:01:48.713Z,2.10
2023-02-27T22:04:18.521Z,2.10
2023-02-27T22:06:48.476Z,2.10
2023-02-27T22:09:16.121Z,2.20
2023-02-27T22:11:43.676Z,2.10
2023-02-27T22:14:11.981Z,2.10
2023-02-27T22:16:39.575Z,2.10
2023-02-27T22:19:08.783Z,2.10
2023-02-27T22:21:37.276Z,2.00
2023-02-27T22:24:05.578Z,2.00
2023-02-27T22:26:33.645Z,1.90
2023-02-27T22:29:03.308Z,2.00
2023-02-27T22:31:33.978Z,2.00
2023-02-27T22:34:08.003Z,2.00
2023-02-27T22:36:36.470Z,2.00
2023-02-27T22:39:05.933Z,2.00
2023-02-27T22:41:36.336Z,2.00
2023-02-27T22:44:04.156Z,1.90
2023-02-27T22:46:37.106Z,1.90
2023-02-27T22:49:18.878Z,1.90
2023-02-27T22:51:50.775Z,2.00
2023-02-27T22:54:20.036Z,2.00
2023-02-27T22:56:50.010Z,2.00
2023-02-27T22:59:17.317Z,2.00
2023-02-27T23:01:46.658Z,2.00
2023-02-27T23:04:17.103Z,2.00
2023-02-27T23:06:45.178Z,2.00
2023-02-27T23:09:16.662Z,2.00
2023-02-27T23:11:43.702Z,1.90
2023-02-27T23:14:11.469Z,2.00
2023-02-27T23:16:40.173Z,2.00
2023-02-27T23:19:07.517Z,1.90
2023-02-27T23:21:36.685Z,2.00
2023-02-27T23:24:06.147Z,1.90
2023-02-27T23:26:37.638Z,1.90
2023-02-27T23:29:05.305Z,1.80
2023-02-27T23:31:35.091Z,1.80
2023-02-27T23:34:03.918Z,1.80
2023-02-27T23:36:31.182Z,1.70
2023-02-27T23:38:59.289Z,1.70
2023-02-27T23:41:26.754Z,1.70
2023-02-27T23:43:54.666Z,1.80
2023-02-27T23:46:22.303Z,1.80
2023-02-27T23:48:49.966Z,1.70
2023-02-27T23:51:17.256Z,1.70
2023-02-27T23:53:44.693Z,1.70
2023-02-27T23:56:14.082Z,1.80
2023-02-27T23:58:41.520Z,1.80
